Time;durP1;ratioP1;P1;durP2;ratioP2;P2;SDS_P1;SDS_P2;PMS_P1;PMS_P2;Temp;Humidity;BMP_temperature;BMP_pressure;BME280_temperature;BME280_humidity;BME280_pressure;Samples;Min_cycle;Max_cycle;Signal;HPM_P1;HPM_P2
2022/05/06 00:01:44;;;;;;;9.85;5.55;;;11.00;99.90;;;;;;5046721;28;20032;-61
2022/05/06 00:04:10;;;;;;;10.68;5.00;;;10.90;99.90;;;;;;5046578;28;20039;-61
2022/05/06 00:06:36;;;;;;;11.65;5.47;;;10.80;99.90;;;;;;5048538;28;20592;-61
2022/05/06 00:09:04;;;;;;;10.00;5.22;;;10.80;99.90;;;;;;5049684;28;20068;-61
2022/05/06 00:11:30;;;;;;;9.60;4.75;;;10.70;99.90;;;;;;5049403;28;20537;-61
2022/05/06 00:13:56;;;;;;;11.68;5.72;;;10.70;99.90;;;;;;5049520;28;20402;-61
2022/05/06 00:16:23;;;;;;;11.10;5.50;;;10.80;99.90;;;;;;5049802;28;20025;-63
2022/05/06 00:18:50;;;;;;;10.63;5.88;;;10.80;99.90;;;;;;5051035;28;20401;-61
2022/05/06 00:21:16;;;;;;;11.88;5.32;;;10.70;99.90;;;;;;5053541;28;20028;-63
2022/05/06 00:23:41;;;;;;;8.52;4.95;;;10.70;99.90;;;;;;5053438;28;20477;-63
2022/05/06 00:26:08;;;;;;;8.15;4.03;;;10.60;99.90;;;;;;5053191;28;20032;-63
2022/05/06 00:28:34;;;;;;;7.30;4.18;;;10.40;99.90;;;;;;5053435;28;20032;-63
2022/05/06 00:31:03;;;;;;;9.95;4.72;;;10.30;99.90;;;;;;5053437;28;20036;-62
2022/05/06 00:33:30;;;;;;;9.48;4.50;;;10.20;99.90;;;;;;5053400;28;20036;-61
2022/05/06 00:35:57;;;;;;;11.88;4.60;;;10.10;99.90;;;;;;5053435;28;20025;-61
2022/05/06 00:38:24;;;;;;;11.85;4.78;;;10.10;99.90;;;;;;5053147;28;20418;-61
2022/05/06 00:40:50;;;;;;;9.40;4.85;;;10.10;99.90;;;;;;5053192;28;20040;-61
2022/05/06 00:43:16;;;;;;;12.27;4.45;;;10.10;99.90;;;;;;5052789;28;20120;-61
2022/05/06 00:45:52;;;;;;;9.68;4.15;;;10.10;99.90;;;;;;5053081;28;20045;-61
2022/05/06 00:48:19;;;;;;;11.55;5.05;;;10.00;99.90;;;;;;5040786;28;20029;-61
2022/05/06 00:50:45;;;;;;;13.13;5.10;;;10.00;99.90;;;;;;5033076;28;20620;-61
2022/05/06 00:53:12;;;;;;;9.82;5.00;;;10.00;99.90;;;;;;5033040;28;20033;-61
2022/05/06 00:55:38;;;;;;;7.47;4.40;;;10.00;99.90;;;;;;5042542;28;20025;-62
2022/05/06 00:58:03;;;;;;;11.48;5.38;;;10.00;99.90;;;;;;5052503;28;20123;-63
2022/05/06 01:00:30;;;;;;;9.30;4.78;;;10.00;99.90;;;;;;5052795;28;20107;-61
2022/05/06 01:02:56;;;;;;;10.30;5.25;;;10.00;99.90;;;;;;5048955;28;20064;-61
2022/05/06 01:05:25;;;;;;;14.00;4.93;;;10.00;99.90;;;;;;5049973;28;20029;-61
2022/05/06 01:07:51;;;;;;;11.02;4.72;;;9.90;99.90;;;;;;5051561;28;20506;-63
2022/05/06 01:10:19;;;;;;;8.43;4.72;;;9.80;99.90;;;;;;5052869;28;20036;-63
2022/05/06 01:12:45;;;;;;;9.63;4.43;;;9.80;99.90;;;;;;5052446;28;20024;-63
2022/05/06 01:15:23;;;;;;;9.25;4.97;;;9.80;99.90;;;;;;5052789;28;20024;-63
2022/05/06 01:17:50;;;;;;;10.40;4.95;;;9.80;99.90;;;;;;5052671;28;20033;-61
2022/05/06 01:20:17;;;;;;;14.38;5.68;;;9.80;99.90;;;;;;5052310;28;20429;-62
2022/05/06 01:22:50;;;;;;;13.02;5.20;;;9.70;99.90;;;;;;5052296;28;20025;-61
2022/05/06 01:25:17;;;;;;;9.60;5.60;;;9.70;99.90;;;;;;5052380;28;20025;-61
2022/05/06 01:27:55;;;;;;;10.95;5.43;;;9.80;99.90;;;;;;5051845;28;20078;-61
2022/05/06 01:30:42;;;;;;;8.10;4.97;;;9.70;99.90;;;;;;5051179;28;20037;-61
2022/05/06 01:33:15;;;;;;;12.27;5.82;;;9.70;99.90;;;;;;5052566;28;20032;-61
2022/05/06 01:35:47;;;;;;;11.05;4.88;;;9.60;99.90;;;;;;5052232;28;20100;-62
2022/05/06 01:38:19;;;;;;;9.07;4.38;;;9.60;99.90;;;;;;5052049;28;20128;-62
2022/05/06 01:41:15;;;;;;;10.95;5.65;;;9.60;99.90;;;;;;5051998;28;20017;-64
2022/05/06 01:43:49;;;;;;;7.97;4.38;;;9.60;99.90;;;;;;5036999;28;20037;-63
2022/05/06 01:46:16;;;;;;;8.15;4.72;;;9.60;99.90;;;;;;5051303;28;20043;-63
2022/05/06 01:48:46;;;;;;;10.90;5.28;;;9.50;99.90;;;;;;5045803;28;20499;-63
2022/05/06 01:51:15;;;;;;;8.70;5.28;;;9.40;99.90;;;;;;5028861;28;20033;-63
2022/05/06 01:53:41;;;;;;;9.38;4.32;;;9.40;99.90;;;;;;5028660;28;20104;-61
2022/05/06 01:56:10;;;;;;;7.47;4.32;;;9.40;99.90;;;;;;5041901;28;20039;-61
2022/05/06 01:58:36;;;;;;;11.00;5.07;;;9.40;99.90;;;;;;5048409;28;20400;-61
2022/05/06 02:01:02;;;;;;;7.90;3.88;;;9.30;99.90;;;;;;5048567;28;20261;-61
2022/05/06 02:06:12;;;;;;;10.40;4.10;;;9.10;99.90;;;;;;5051729;28;20122;-61
2022/05/06 02:08:38;;;;;;;8.32;3.92;;;9.00;99.90;;;;;;5051488;28;20449;-63
2022/05/06 02:11:06;;;;;;;6.88;3.58;;;9.00;99.90;;;;;;5051386;28;20032;-62
2022/05/06 02:13:34;;;;;;;9.75;4.47;;;8.90;99.90;;;;;;5051488;28;20029;-63
2022/05/06 02:16:01;;;;;;;8.05;4.40;;;8.90;99.90;;;;;;5051347;28;20095;-62
2022/05/06 02:18:26;;;;;;;9.07;4.25;;;8.90;99.90;;;;;;5050454;28;20116;-63
2022/05/06 02:20:57;;;;;;;11.18;4.47;;;8.90;99.90;;;;;;5048312;28;20108;-63
2022/05/06 02:23:23;;;;;;;7.47;3.28;;;8.80;99.90;;;;;;5048155;28;20037;-63
2022/05/06 02:25:50;;;;;;;4.82;3.22;;;8.80;99.90;;;;;;5048152;28;20105;-63
2022/05/06 02:28:16;;;;;;;6.25;3.33;;;8.80;99.90;;;;;;5048266;28;20059;-63
2022/05/06 02:33:26;;;;;;;7.25;3.88;;;8.70;99.90;;;;;;5051001;28;20504;-63
2022/05/06 02:35:53;;;;;;;9.45;4.50;;;8.70;99.90;;;;;;5050884;28;20033;-63
2022/05/06 02:38:23;;;;;;;7.70;3.88;;;8.60;99.90;;;;;;5050892;28;20044;-63
2022/05/06 02:40:49;;;;;;;6.45;3.72;;;8.50;99.90;;;;;;5049582;28;20025;-62
2022/05/06 02:43:15;;;;;;;8.75;4.57;;;8.50;99.90;;;;;;5050411;28;20386;-63
2022/05/06 02:45:42;;;;;;;8.55;4.60;;;8.50;99.90;;;;;;5045461;28;20087;-63
2022/05/06 02:48:08;;;;;;;7.97;4.13;;;8.50;99.90;;;;;;5031013;28;20025;-63
2022/05/06 02:50:33;;;;;;;6.82;4.03;;;8.40;99.90;;;;;;5030817;28;20030;-63
2022/05/06 02:53:00;;;;;;;7.53;3.83;;;8.40;99.90;;;;;;5030909;28;20034;-63
2022/05/06 02:55:26;;;;;;;5.50;3.10;;;8.30;99.90;;;;;;5038602;28;20025;-62
2022/05/06 02:57:52;;;;;;;6.47;3.63;;;8.30;99.90;;;;;;5050387;28;20029;-62
2022/05/06 03:00:18;;;;;;;6.65;3.75;;;8.30;99.90;;;;;;5050485;28;20061;-62
2022/05/06 03:02:44;;;;;;;5.45;4.10;;;8.30;99.90;;;;;;5050855;28;20036;-62
2022/05/06 03:05:10;;;;;;;6.15;3.80;;;8.30;99.90;;;;;;5050425;28;20025;-62
2022/05/06 03:07:36;;;;;;;5.72;3.40;;;8.30;99.90;;;;;;5050513;28;20025;-62
2022/05/06 03:10:03;;;;;;;6.75;3.97;;;8.20;99.90;;;;;;5050388;28;20033;-62
2022/05/06 03:12:30;;;;;;;7.55;4.05;;;8.20;99.90;;;;;;5050099;28;20086;-62
2022/05/06 03:14:58;;;;;;;5.95;3.33;;;8.20;99.90;;;;;;5050081;28;20423;-62
2022/05/06 03:17:24;;;;;;;7.25;3.70;;;8.10;99.90;;;;;;5050240;28;20040;-62
2022/05/06 03:19:50;;;;;;;5.10;3.17;;;8.10;99.90;;;;;;5050464;28;20033;-62
2022/05/06 03:22:16;;;;;;;7.68;4.60;;;8.10;99.90;;;;;;5050241;28;20025;-62
2022/05/06 03:24:43;;;;;;;6.30;3.42;;;8.10;99.90;;;;;;5050168;28;20031;-62
2022/05/06 03:27:59;;;;;;;7.03;3.63;;;8.10;99.90;;;;;;5050278;28;20035;-62
2022/05/06 03:29:55;;;;;;;6.93;3.63;;;8.10;99.90;;;;;;5049841;28;20025;-61
2022/05/06 03:32:22;;;;;;;7.28;4.00;;;8.00;99.90;;;;;;5050039;28;20024;-61
2022/05/06 03:34:48;;;;;;;8.13;4.30;;;7.90;99.90;;;;;;5050044;28;20392;-60
2022/05/06 03:37:14;;;;;;;9.00;3.85;;;7.80;99.90;;;;;;5050209;28;20021;-61
2022/05/06 03:39:39;;;;;;;6.28;3.95;;;7.80;99.90;;;;;;5049974;28;20108;-62
2022/05/06 03:42:05;;;;;;;7.75;4.03;;;7.70;99.90;;;;;;5049767;28;20090;-62
2022/05/06 03:44:31;;;;;;;5.80;3.15;;;7.70;99.90;;;;;;5049733;28;20044;-62
2022/05/06 03:46:57;;;;;;;6.85;4.10;;;7.70;99.90;;;;;;5049856;28;20029;-61
2022/05/06 03:49:22;;;;;;;5.07;3.38;;;7.80;99.90;;;;;;5049783;28;20021;-61
2022/05/06 03:51:48;;;;;;;5.63;4.00;;;7.70;99.90;;;;;;5050070;28;20033;-61
2022/05/06 03:54:13;;;;;;;7.32;4.65;;;7.80;99.90;;;;;;5049145;28;20385;-62
2022/05/06 03:56:39;;;;;;;6.68;3.83;;;7.80;99.90;;;;;;5049176;28;20116;-61
2022/05/06 03:59:05;;;;;;;9.45;3.97;;;7.80;99.90;;;;;;5049564;28;20112;-61
2022/05/06 04:01:31;;;;;;;7.85;4.03;;;7.80;99.90;;;;;;5050011;28;20037;-62
2022/05/06 04:03:57;;;;;;;6.50;3.97;;;7.80;99.90;;;;;;5049829;28;20029;-61
2022/05/06 04:06:23;;;;;;;9.85;4.57;;;7.80;99.90;;;;;;5049642;28;20033;-61
2022/05/06 04:08:48;;;;;;;10.20;4.25;;;7.80;99.90;;;;;;5049941;28;20044;-62
2022/05/06 04:11:14;;;;;;;9.70;5.38;;;7.80;99.90;;;;;;5049834;28;20044;-61
2022/05/06 04:13:40;;;;;;;11.88;5.10;;;7.80;99.90;;;;;;5049824;28;20029;-61
2022/05/06 04:16:07;;;;;;;10.25;5.47;;;7.80;99.90;;;;;;5048449;28;20021;-62
2022/05/06 04:18:33;;;;;;;9.18;4.68;;;7.80;99.90;;;;;;5046619;28;20044;-61
2022/05/06 04:23:43;;;;;;;11.25;5.88;;;7.70;99.90;;;;;;5049767;28;20039;-61
2022/05/06 04:26:13;;;;;;;12.57;5.43;;;7.70;99.90;;;;;;5049275;28;20025;-61
2022/05/06 04:28:40;;;;;;;11.07;5.87;;;7.60;99.90;;;;;;5049385;28;20106;-61
2022/05/06 04:31:07;;;;;;;14.02;6.25;;;7.60;99.90;;;;;;5048031;28;20718;-61
2022/05/06 04:33:34;;;;;;;9.30;5.68;;;7.50;99.90;;;;;;5045988;28;20120;-61
2022/05/06 04:36:00;;;;;;;9.07;5.07;;;7.50;99.90;;;;;;5046465;28;20486;-62
2022/05/06 04:38:26;;;;;;;10.73;5.78;;;7.50;99.90;;;;;;5046901;28;20513;-61
2022/05/06 04:40:58;;;;;;;13.07;6.45;;;7.60;99.90;;;;;;5049155;28;20086;-61
2022/05/06 04:43:25;;;;;;;13.23;6.38;;;7.70;99.90;;;;;;5048959;28;20485;-61
2022/05/06 04:45:51;;;;;;;13.68;5.30;;;7.70;99.90;;;;;;5049310;28;20032;-61
2022/05/06 04:48:17;;;;;;;7.80;4.90;;;7.80;99.90;;;;;;5049133;28;20021;-61
2022/05/06 04:50:46;;;;;;;10.38;5.78;;;7.80;99.90;;;;;;5036178;28;20029;-61
2022/05/06 04:53:13;;;;;;;13.70;6.43;;;7.80;99.90;;;;;;5029357;28;20068;-61
2022/05/06 04:55:41;;;;;;;9.07;4.80;;;7.80;99.90;;;;;;5039077;28;20027;-61
2022/05/06 04:58:08;;;;;;;7.07;4.07;;;7.80;99.90;;;;;;5048924;28;20036;-61
2022/05/06 05:00:33;;;;;;;10.63;5.03;;;7.90;99.90;;;;;;5048671;28;20033;-61
2022/05/06 05:03:01;;;;;;;8.63;5.10;;;8.00;99.90;;;;;;5045936;28;20033;-62
2022/05/06 05:05:26;;;;;;;8.30;4.65;;;8.00;99.90;;;;;;5046714;28;20478;-61
2022/05/06 05:07:53;;;;;;;9.10;4.47;;;8.00;99.90;;;;;;5049432;28;20032;-61
2022/05/06 05:10:20;;;;;;;9.05;5.05;;;8.00;99.90;;;;;;5049693;28;20056;-61
2022/05/06 05:12:46;;;;;;;10.30;5.57;;;8.10;99.90;;;;;;5051902;28;20017;-61
2022/05/06 05:15:12;;;;;;;7.60;4.35;;;8.20;99.90;;;;;;5052773;28;20039;-62
2022/05/06 05:17:37;;;;;;;9.25;4.68;;;8.30;99.90;;;;;;5052456;28;20029;-63
2022/05/06 05:20:04;;;;;;;6.45;4.55;;;8.30;99.90;;;;;;5052386;28;20048;-61
2022/05/06 05:22:31;;;;;;;7.57;4.38;;;8.40;99.90;;;;;;5052411;28;20025;-61
2022/05/06 05:24:57;;;;;;;10.13;4.18;;;8.50;99.90;;;;;;5052469;28;20033;-60
2022/05/06 05:27:23;;;;;;;7.20;4.60;;;8.50;99.90;;;;;;5049059;28;20036;-62
2022/05/06 05:29:48;;;;;;;7.68;4.38;;;8.70;99.90;;;;;;5049229;28;20389;-61
2022/05/06 05:32:14;;;;;;;9.98;5.50;;;8.70;99.90;;;;;;5049278;28;20028;-60
2022/05/06 05:34:42;;;;;;;6.85;4.03;;;8.70;99.90;;;;;;5049219;28;20460;-62
2022/05/06 05:37:09;;;;;;;8.02;4.63;;;8.80;99.90;;;;;;5050633;28;20069;-63
2022/05/06 05:39:35;;;;;;;8.95;4.47;;;8.80;99.90;;;;;;5051874;28;20112;-60
2022/05/06 05:42:03;;;;;;;8.45;5.28;;;8.90;99.90;;;;;;5051730;28;20018;-61
2022/05/06 05:49:57;;;;;;;7.47;4.70;;;9.20;99.90;;;;;;5051727;28;20531;-60
2022/05/06 05:52:23;;;;;;;6.53;4.22;;;9.30;99.90;;;;;;5048692;28;20021;-61
2022/05/06 05:54:49;;;;;;;7.00;3.65;;;9.30;99.90;;;;;;5048598;28;20029;-60
2022/05/06 05:57:14;;;;;;;7.70;4.65;;;9.40;99.90;;;;;;5049819;28;20048;-63
2022/05/06 05:59:41;;;;;;;6.15;3.60;;;9.40;99.90;;;;;;5050287;28;20033;-62
2022/05/06 06:02:08;;;;;;;6.97;3.70;;;9.40;99.90;;;;;;5048807;28;20162;-63
2022/05/06 06:04:34;;;;;;;7.65;4.53;;;9.50;99.90;;;;;;5048045;28;20032;-61
2022/05/06 06:06:59;;;;;;;6.35;3.55;;;9.50;99.90;;;;;;5048815;28;20021;-61
2022/05/06 06:09:27;;;;;;;6.03;4.05;;;9.50;99.90;;;;;;5051227;28;20410;-61
2022/05/06 06:11:53;;;;;;;7.28;4.18;;;9.60;99.90;;;;;;5051094;28;20072;-61
2022/05/06 06:14:19;;;;;;;9.27;4.78;;;9.70;99.90;;;;;;5051163;28;20415;-61
2022/05/06 06:16:45;;;;;;;7.65;3.58;;;9.80;99.90;;;;;;5050708;28;20037;-61
2022/05/06 06:19:10;;;;;;;9.18;4.15;;;10.00;99.90;;;;;;5051057;28;20033;-61
2022/05/06 06:21:36;;;;;;;6.30;4.20;;;10.20;99.90;;;;;;5050862;28;20382;-61
2022/05/06 06:24:02;;;;;;;5.20;3.47;;;10.30;99.90;;;;;;5051073;28;20493;-61
2022/05/06 06:26:28;;;;;;;6.53;3.90;;;10.30;99.90;;;;;;5050614;28;20048;-61
2022/05/06 06:28:54;;;;;;;5.05;3.50;;;10.40;99.90;;;;;;5050739;28;20093;-62
2022/05/06 06:31:20;;;;;;;6.93;4.43;;;10.50;99.90;;;;;;5050898;28;20025;-61
2022/05/06 06:33:46;;;;;;;7.60;4.63;;;10.70;99.90;;;;;;5050895;28;20458;-60
2022/05/06 06:36:11;;;;;;;6.38;4.25;;;10.90;99.90;;;;;;5050769;28;20029;-61
2022/05/06 06:38:37;;;;;;;6.88;4.18;;;11.10;99.90;;;;;;5050628;28;20036;-62
2022/05/06 06:41:04;;;;;;;8.73;4.22;;;11.40;99.90;;;;;;5050715;28;20072;-62
2022/05/06 06:43:29;;;;;;;5.65;3.65;;;11.60;99.90;;;;;;5050814;28;20057;-62
2022/05/06 06:45:56;;;;;;;8.35;4.15;;;11.70;99.90;;;;;;5050797;28;20021;-62
2022/05/06 06:48:23;;;;;;;6.68;3.92;;;11.90;99.90;;;;;;5050799;28;20095;-62
2022/05/06 06:50:49;;;;;;;6.43;4.47;;;12.00;99.90;;;;;;5039591;28;20028;-62
2022/05/06 06:53:14;;;;;;;7.43;4.25;;;12.20;99.90;;;;;;5030411;28;20022;-62
2022/05/06 06:55:40;;;;;;;8.48;4.75;;;12.40;99.90;;;;;;5039993;28;20521;-62
2022/05/06 06:58:07;;;;;;;7.05;3.97;;;12.50;99.90;;;;;;5050230;28;20080;-62
2022/05/06 07:00:33;;;;;;;7.43;4.53;;;12.70;99.90;;;;;;5049778;28;20078;-62
2022/05/06 07:02:59;;;;;;;6.10;3.65;;;12.90;99.90;;;;;;5046529;28;20029;-62
2022/05/06 07:05:24;;;;;;;7.47;4.68;;;13.20;99.90;;;;;;5047453;28;20117;-62
2022/05/06 07:13:18;;;;;;;6.22;3.97;;;14.20;99.90;;;;;;5050080;28;20044;-62
2022/05/06 07:15:44;;;;;;;7.03;4.47;;;14.60;99.90;;;;;;5049971;28;20143;-62
2022/05/06 07:18:10;;;;;;;6.40;3.80;;;14.90;99.90;;;;;;5050068;28;20059;-62
2022/05/06 07:20:35;;;;;;;7.32;4.43;;;15.10;99.90;;;;;;5050107;28;20370;-62
2022/05/06 07:23:01;;;;;;;7.43;4.32;;;15.50;99.90;;;;;;5049795;28;20033;-62
2022/05/06 07:25:27;;;;;;;6.15;3.95;;;16.00;99.90;;;;;;5049988;28;20154;-62
2022/05/06 07:27:52;;;;;;;6.97;4.47;;;16.50;99.90;;;;;;5048941;28;20120;-62
2022/05/06 07:30:18;;;;;;;7.72;4.13;;;17.00;99.90;;;;;;5049758;28;20029;-62
2022/05/06 07:32:44;;;;;;;6.30;3.45;;;17.10;99.90;;;;;;5049938;28;20040;-62
2022/05/06 07:35:09;;;;;;;5.10;3.20;;;17.80;99.90;;;;;;5049765;28;20179;-62
2022/05/06 07:37:35;;;;;;;6.20;4.50;;;18.60;99.90;;;;;;5049801;28;20116;-62
2022/05/06 07:40:02;;;;;;;6.63;3.83;;;19.20;99.90;;;;;;5049794;28;20452;-62
2022/05/06 07:42:32;;;;;;;9.35;3.90;;;19.80;99.90;;;;;;5049536;28;20393;-62
2022/05/06 07:44:58;;;;;;;5.72;3.78;;;20.20;98.70;;;;;;5049288;28;20506;-61
2022/05/06 07:47:24;;;;;;;7.30;4.13;;;20.60;97.30;;;;;;5049477;28;20040;-61
2022/05/06 07:49:49;;;;;;;6.05;3.83;;;21.00;96.60;;;;;;5049534;28;20029;-62
2022/05/06 07:52:15;;;;;;;5.63;4.18;;;21.10;96.30;;;;;;5049473;28;20116;-62
2022/05/06 07:54:41;;;;;;;5.25;3.80;;;21.40;96.20;;;;;;5049498;28;20106;-62
2022/05/06 07:57:06;;;;;;;5.05;4.18;;;21.90;95.40;;;;;;5049306;28;20029;-62
2022/05/06 07:59:32;;;;;;;5.20;3.88;;;22.20;95.20;;;;;;5048708;28;20029;-63
2022/05/06 08:04:47;;;;;;;6.43;4.35;;;23.10;92.20;;;;;;5049492;28;20111;-62
2022/05/06 08:07:13;;;;;;;7.30;4.72;;;23.10;90.20;;;;;;5049455;28;20044;-63
2022/05/06 08:09:38;;;;;;;6.25;4.53;;;23.00;91.10;;;;;;5049565;28;20013;-62
2022/05/06 08:12:05;;;;;;;6.10;4.25;;;23.70;87.00;;;;;;5049277;28;20025;-61
2022/05/06 08:14:31;;;;;;;7.82;4.50;;;23.10;88.80;;;;;;5049229;28;20108;-61
2022/05/06 08:16:56;;;;;;;6.85;4.55;;;23.80;86.50;;;;;;5049358;28;20068;-62
2022/05/06 08:19:22;;;;;;;8.73;5.05;;;24.30;84.50;;;;;;5049484;28;20099;-62
2022/05/06 08:21:48;;;;;;;6.72;4.13;;;24.50;81.90;;;;;;5049539;28;20017;-62
2022/05/06 08:24:14;;;;;;;7.93;4.60;;;25.30;79.70;;;;;;5048065;28;20497;-63
2022/05/06 08:26:40;;;;;;;6.00;4.40;;;25.40;78.20;;;;;;5045814;28;20032;-63
2022/05/06 08:29:05;;;;;;;6.25;4.07;;;25.70;75.10;;;;;;5045836;28;20032;-63
2022/05/06 08:31:32;;;;;;;8.27;4.57;;;26.10;73.30;;;;;;5045042;28;20063;-61
2022/05/06 08:33:58;;;;;;;6.00;4.40;;;26.30;71.10;;;;;;5048778;28;20119;-62
2022/05/06 08:36:24;;;;;;;8.15;5.03;;;26.90;70.50;;;;;;5047444;28;20060;-62
2022/05/06 08:38:50;;;;;;;10.85;5.75;;;26.60;70.70;;;;;;5048908;28;20072;-61
2022/05/06 08:41:16;;;;;;;6.72;4.50;;;26.60;70.50;;;;;;5052823;28;20033;-62
2022/05/06 08:43:42;;;;;;;7.93;5.78;;;26.30;72.90;;;;;;5052872;28;20041;-61
2022/05/06 08:51:40;;;;;;;7.55;4.93;;;26.70;71.20;;;;;;5039877;28;20084;-62
2022/05/06 08:54:07;;;;;;;6.55;4.72;;;27.50;65.60;;;;;;5040758;28;20025;-62
2022/05/06 08:56:32;;;;;;;9.40;4.78;;;27.60;68.20;;;;;;5052064;28;20035;-62
2022/05/06 08:58:59;;;;;;;7.75;4.88;;;27.70;64.20;;;;;;5049952;28;20037;-62
2022/05/06 09:01:25;;;;;;;6.65;5.15;;;28.90;62.10;;;;;;5049667;28;20048;-62
2022/05/06 09:03:51;;;;;;;9.07;5.10;;;28.50;58.40;;;;;;5052548;28;20421;-62
2022/05/06 09:06:26;;;;;;;7.72;4.93;;;28.80;59.50;;;;;;5052611;28;20021;-62
2022/05/06 09:08:54;;;;;;;9.43;4.82;;;29.70;58.50;;;;;;5052491;28;20473;-62
2022/05/06 09:14:07;;;;;;;5.60;3.45;;;31.30;48.60;;;;;;5053013;28;20068;-62
2022/05/06 09:16:46;;;;;;;5.32;3.88;;;31.10;43.60;;;;;;5052420;28;20040;-62
2022/05/06 09:19:28;;;;;;;4.80;3.92;;;31.10;39.60;;;;;;5051132;28;20033;-62
2022/05/06 09:22:11;;;;;;;6.20;3.53;;;31.00;38.10;;;;;;5052418;28;20025;-62
2022/05/06 09:24:38;;;;;;;7.43;3.38;;;30.90;36.00;;;;;;5052206;28;20386;-62
2022/05/06 09:27:05;;;;;;;5.28;3.30;;;32.50;34.80;;;;;;5052065;28;20021;-62
2022/05/06 09:29:33;;;;;;;6.25;3.25;;;32.30;31.40;;;;;;5052179;28;20055;-62
2022/05/06 09:32:19;;;;;;;4.55;3.50;;;32.10;29.90;;;;;;5051896;28;20055;-62
2022/05/06 09:34:47;;;;;;;5.53;3.28;;;32.90;29.30;;;;;;5050923;28;20022;-62
2022/05/06 09:37:41;;;;;;;6.20;3.78;;;32.40;28.80;;;;;;5051956;28;20086;-63
2022/05/06 09:43:05;;;;;;;5.65;3.25;;;33.10;27.80;;;;;;4923597;22;20049;-62
2022/05/06 09:45:39;;;;;;;5.57;3.35;;;34.90;26.00;;;;;;5071961;28;20096;-62
2022/05/06 09:48:06;;;;;;;4.00;3.53;;;34.30;25.30;;;;;;5071719;28;20044;-62
2022/05/06 09:50:38;;;;;;;5.18;3.33;;;35.10;23.80;;;;;;5071541;28;20055;-64
2022/05/06 09:53:08;;;;;;;4.28;2.60;;;35.10;23.80;;;;;;5071409;28;20032;-62
2022/05/06 09:55:39;;;;;;;;;;;35.90;20.60;;;;;;5071890;28;20027;-62
2022/05/06 09:58:06;;;;;;;5.80;2.70;;;36.40;22.70;;;;;;5071362;28;19936;-62
2022/05/06 10:00:32;;;;;;;3.60;2.80;;;36.10;19.70;;;;;;5068358;28;20033;-62
2022/05/06 10:03:00;;;;;;;5.97;2.60;;;36.20;18.50;;;;;;5071490;28;20028;-62
2022/05/06 10:05:28;;;;;;;2.38;2.13;;;34.90;19.10;;;;;;5053435;28;20062;-62
2022/05/06 10:07:59;;;;;;;3.55;2.47;;;35.40;18.70;;;;;;5071406;28;20503;-63
2022/05/06 10:10:38;;;;;;;4.20;2.50;;;36.70;19.00;;;;;;5071379;28;20111;-62
2022/05/06 10:13:17;;;;;;;3.08;2.00;;;37.50;17.00;;;;;;5051455;28;20021;-62
2022/05/06 10:15:51;;;;;;;4.13;2.22;;;37.80;15.00;;;;;;5051351;28;20029;-63
2022/05/06 10:18:42;;;;;;;2.38;2.05;;;36.60;15.10;;;;;;5051571;28;20025;-63
2022/05/06 10:21:09;;;;;;;3.15;2.00;;;37.10;14.60;;;;;;5033482;28;20028;-64
2022/05/06 10:23:48;;;;;;;3.05;1.73;;;36.30;14.50;;;;;;5033360;28;20373;-62
2022/05/06 10:26:41;;;;;;;2.40;1.40;;;37.30;13.80;;;;;;5050869;28;20020;-62
2022/05/06 10:34:57;;;;;;;2.47;1.25;;;37.20;11.70;;;;;;5036153;28;20040;-62
2022/05/06 10:37:26;;;;;;;3.45;1.60;;;38.10;11.30;;;;;;5050885;28;20051;-62
2022/05/06 10:39:52;;;;;;;2.05;1.45;;;38.30;11.60;;;;;;5050533;28;20052;-62
2022/05/06 10:42:30;;;;;;;2.33;1.38;;;39.10;11.00;;;;;;5065276;28;20500;-62
2022/05/06 10:44:56;;;;;;;2.85;1.40;;;38.90;9.80;;;;;;5063402;28;20021;-64
2022/05/06 10:47:22;;;;;;;2.00;1.40;;;39.00;11.20;;;;;;5050665;28;20455;-63
2022/05/06 10:49:54;;;;;;;2.65;1.50;;;38.60;10.80;;;;;;5050436;28;20487;-63
2022/05/06 10:52:20;;;;;;;2.70;1.77;;;38.80;10.40;;;;;;5051137;28;20377;-62
2022/05/06 10:54:58;;;;;;;1.52;1.38;;;38.60;10.80;;;;;;5047617;28;20469;-63
2022/05/06 10:57:25;;;;;;;2.00;1.52;;;38.40;12.40;;;;;;5029294;28;20025;-63
2022/05/06 11:00:00;;;;;;;2.40;1.33;;;37.80;10.80;;;;;;5047573;28;20043;-64
2022/05/06 11:02:28;;;;;;;2.35;1.73;;;38.30;12.00;;;;;;5047827;28;20029;-62
2022/05/06 11:05:07;;;;;;;8.80;2.35;;;39.60;11.20;;;;;;5047571;28;20036;-62
2022/05/06 11:07:35;;;;;;;2.70;1.60;;;39.10;10.80;;;;;;5029621;28;20025;-63
2022/05/06 11:10:28;;;;;;;2.00;1.83;;;38.10;10.30;;;;;;5047255;28;20516;-61
2022/05/06 11:12:58;;;;;;;1.95;1.13;;;36.60;10.40;;;;;;5044452;28;20037;-62
2022/05/06 11:15:31;;;;;;;2.78;1.35;;;37.20;10.50;;;;;;5047153;28;20029;-62
2022/05/06 11:18:00;;;;;;;2.15;1.30;;;36.90;10.30;;;;;;5047013;28;20071;-62
2022/05/06 11:20:33;;;;;;;2.28;1.15;;;36.70;10.90;;;;;;5046828;28;20098;-61
2022/05/06 11:23:03;;;;;;;1.42;1.15;;;39.10;10.50;;;;;;5047089;28;20493;-61
2022/05/06 11:25:38;;;;;;;1.33;1.23;;;37.00;9.20;;;;;;5047023;28;20098;-61
2022/05/06 11:28:14;;;;;;;1.05;0.80;;;38.00;10.30;;;;;;5046535;28;20135;-61
2022/05/06 11:30:45;;;;;;;1.95;1.00;;;37.80;10.30;;;;;;5046901;28;20039;-63
2022/05/06 11:33:20;;;;;;;1.55;0.80;;;35.50;9.90;;;;;;5047120;28;20028;-62
2022/05/06 11:35:47;;;;;;;1.30;0.90;;;35.20;9.90;;;;;;5046989;28;20048;-63
2022/05/06 11:38:13;;;;;;;1.80;1.15;;;35.10;10.50;;;;;;5047229;28;20021;-62
2022/05/06 11:40:39;;;;;;;1.30;1.00;;;36.20;10.60;;;;;;5047670;28;20028;-62
2022/05/06 11:43:18;;;;;;;2.17;1.33;;;35.60;10.40;;;;;;5066138;28;20106;-63
2022/05/06 11:48:30;;;;;;;1.45;1.27;;;34.50;11.30;;;;;;5066724;28;20047;-62
2022/05/06 11:51:00;;;;;;;2.80;1.77;;;35.70;11.80;;;;;;5066633;28;20028;-62
2022/05/06 11:53:27;;;;;;;2.53;1.80;;;35.10;10.70;;;;;;5066861;28;20024;-61
2022/05/06 11:55:55;;;;;;;3.10;2.05;;;34.00;11.10;;;;;;5066413;28;20028;-63
2022/05/06 11:58:22;;;;;;;2.35;1.48;;;36.30;11.80;;;;;;5066369;28;20436;-63
2022/05/06 12:00:51;;;;;;;1.40;1.20;;;36.10;10.10;;;;;;5066703;28;20476;-62
2022/05/06 12:03:17;;;;;;;1.67;1.48;;;36.20;10.50;;;;;;5066559;28;20094;-62
2022/05/06 12:05:43;;;;;;;2.58;1.80;;;37.40;10.40;;;;;;5066707;28;20115;-63
2022/05/06 12:08:09;;;;;;;3.05;2.30;;;37.30;9.90;;;;;;5066021;28;20119;-62
2022/05/06 12:10:36;;;;;;;4.45;2.63;;;35.90;9.50;;;;;;5066534;28;20025;-63
2022/05/06 12:13:10;;;;;;;2.88;1.75;;;35.40;10.40;;;;;;5066292;28;20029;-63
2022/05/06 12:15:40;;;;;;;2.97;2.13;;;35.10;11.20;;;;;;5069430;28;20087;-62
2022/05/06 12:18:09;;;;;;;2.72;2.17;;;34.60;10.90;;;;;;5070406;28;20076;-63
2022/05/06 12:20:37;;;;;;;3.83;2.58;;;34.80;12.10;;;;;;5070328;28;20385;-62
2022/05/06 12:23:06;;;;;;;3.97;2.67;;;35.40;11.70;;;;;;5070218;28;20039;-63
2022/05/06 12:25:35;;;;;;;3.35;2.42;;;36.00;11.90;;;;;;5070268;28;20044;-62
2022/05/06 12:28:17;;;;;;;3.60;2.50;;;36.20;11.70;;;;;;5069963;28;20041;-62
2022/05/06 12:30:44;;;;;;;4.90;2.80;;;35.40;12.40;;;;;;5069932;28;20029;-61
2022/05/06 12:33:19;;;;;;;4.35;2.40;;;34.60;12.70;;;;;;5070398;28;20025;-62
2022/05/06 12:36:00;;;;;;;3.63;2.25;;;33.90;13.10;;;;;;5070000;28;20535;-62
2022/05/06 12:38:48;;;;;;;3.70;2.50;;;34.00;12.60;;;;;;5069977;28;20037;-61
2022/05/06 12:41:19;;;;;;;2.92;2.38;;;32.70;13.70;;;;;;5069428;28;20058;-62
2022/05/06 12:43:45;;;;;;;4.25;2.22;;;32.50;14.60;;;;;;5070223;28;20020;-62
2022/05/06 12:46:11;;;;;;;5.50;2.95;;;32.00;14.50;;;;;;5068247;28;20090;-62
2022/05/06 12:51:21;;;;;;;4.13;2.60;;;32.70;15.50;;;;;;5049404;28;20139;-63
2022/05/06 12:53:46;;;;;;;4.05;2.55;;;34.80;16.30;;;;;;5049426;28;20044;-63
2022/05/06 12:56:21;;;;;;;4.78;2.50;;;34.90;15.50;;;;;;5031558;28;20029;-63
2022/05/06 12:58:47;;;;;;;5.15;2.40;;;34.80;15.10;;;;;;5049520;28;20108;-63
2022/05/06 13:01:13;;;;;;;3.78;2.55;;;34.00;15.40;;;;;;5031500;28;20123;-63
2022/05/06 13:03:38;;;;;;;3.08;2.13;;;32.90;16.70;;;;;;5049526;28;20517;-63
2022/05/06 13:06:04;;;;;;;3.72;2.38;;;33.30;16.40;;;;;;5049599;28;20389;-63
2022/05/06 13:08:30;;;;;;;4.25;3.08;;;33.30;17.00;;;;;;5049784;28;20153;-63
2022/05/06 13:10:55;;;;;;;6.22;3.13;;;31.20;17.20;;;;;;5052523;28;20021;-63
2022/05/06 13:13:21;;;;;;;6.18;3.10;;;30.50;18.80;;;;;;5069395;28;20111;-63
2022/05/06 13:15:46;;;;;;;4.80;3.00;;;30.60;18.50;;;;;;5069272;28;20031;-63
2022/05/06 13:18:12;;;;;;;4.50;2.70;;;31.10;18.90;;;;;;5069000;28;20025;-63
2022/05/06 13:20:38;;;;;;;6.28;3.42;;;30.90;19.50;;;;;;5069478;28;20843;-63
2022/05/06 13:23:03;;;;;;;5.53;3.35;;;30.40;19.90;;;;;;5069150;28;20024;-63
2022/05/06 13:25:29;;;;;;;6.10;3.00;;;29.90;20.40;;;;;;5068353;28;20028;-63
2022/05/06 13:27:55;;;;;;;6.05;2.88;;;28.40;21.20;;;;;;5068292;28;20099;-63
2022/05/06 13:30:20;;;;;;;5.45;2.78;;;29.30;22.00;;;;;;5069086;28;20074;-64
2022/05/06 13:32:46;;;;;;;5.35;2.92;;;30.70;20.50;;;;;;5069193;28;20034;-63
2022/05/06 13:35:12;;;;;;;3.67;2.45;;;31.00;18.50;;;;;;5068719;28;20024;-63
2022/05/06 13:37:38;;;;;;;3.25;2.28;;;31.40;18.40;;;;;;5068689;28;20086;-63
2022/05/06 13:40:04;;;;;;;4.78;2.90;;;32.00;18.20;;;;;;5068423;28;20055;-63